sensor_id;sensor_type;location;lat;lon;timestamp;temperature;humidity
24252;DHT22;12380;51.118;4.176;2024-02-15T00:01:00;13.00;99.90
24252;DHT22;12380;51.118;4.176;2024-02-15T00:03:26;13.10;99.90
24252;DHT22;12380;51.118;4.176;2024-02-15T00:05:52;13.20;99.90
24252;DHT22;12380;51.118;4.176;2024-02-15T00:08:18;13.30;99.90
24252;DHT22;12380;51.118;4.176;2024-02-15T00:10:46;13.20;99.90
24252;DHT22;12380;51.118;4.176;2024-02-15T00:13:12;13.20;99.90
24252;DHT22;12380;51.118;4.176;2024-02-15T00:15:37;13.30;99.90
24252;DHT22;12380;51.118;4.176;2024-02-15T00:18:03;13.40;99.90
24252;DHT22;12380;51.118;4.176;2024-02-15T00:20:29;13.30;99.90
24252;DHT22;12380;51.118;4.176;2024-02-15T00:22:54;13.20;99.90
24252;DHT22;12380;51.118;4.176;2024-02-15T00:25:21;13.40;99.90
24252;DHT22;12380;51.118;4.176;2024-02-15T00:27:47;13.30;99.90
24252;DHT22;12380;51.118;4.176;2024-02-15T00:30:12;13.30;99.90
24252;DHT22;12380;51.118;4.176;2024-02-15T00:32:38;13.30;99.90
24252;DHT22;12380;51.118;4.176;2024-02-15T00:35:04;13.20;99.90
24252;DHT22;12380;51.118;4.176;2024-02-15T00:37:35;13.20;99.90
24252;DHT22;12380;51.118;4.176;2024-02-15T00:40:00;13.20;99.90
24252;DHT22;12380;51.118;4.176;2024-02-15T00:42:29;13.30;99.90
24252;DHT22;12380;51.118;4.176;2024-02-15T00:44:57;13.40;99.90
24252;DHT22;12380;51.118;4.176;2024-02-15T00:47:22;13.20;99.90
24252;DHT22;12380;51.118;4.176;2024-02-15T00:49:48;13.20;99.90
24252;DHT22;12380;51.118;4.176;2024-02-15T00:52:15;13.20;99.90
24252;DHT22;12380;51.118;4.176;2024-02-15T00:54:41;13.20;99.90
24252;DHT22;12380;51.118;4.176;2024-02-15T00:57:06;13.10;99.90
24252;DHT22;12380;51.118;4.176;2024-02-15T00:59:32;13.00;99.90
24252;DHT22;12380;51.118;4.176;2024-02-15T01:02:01;13.10;99.90
24252;DHT22;12380;51.118;4.176;2024-02-15T01:04:27;13.10;99.90
24252;DHT22;12380;51.118;4.176;2024-02-15T01:06:55;13.30;99.90
24252;DHT22;12380;51.118;4.176;2024-02-15T01:09:24;13.20;99.90
24252;DHT22;12380;51.118;4.176;2024-02-15T01:11:49;13.10;99.90
24252;DHT22;12380;51.118;4.176;2024-02-15T01:14:15;13.10;99.90
24252;DHT22;12380;51.118;4.176;2024-02-15T01:16:43;13.20;99.90
24252;DHT22;12380;51.118;4.176;2024-02-15T01:19:09;13.30;99.90
24252;DHT22;12380;51.118;4.176;2024-02-15T01:21:35;13.30;99.90
24252;DHT22;12380;51.118;4.176;2024-02-15T01:24:03;13.40;99.90
24252;DHT22;12380;51.118;4.176;2024-02-15T01:26:32;13.40;99.90
24252;DHT22;12380;51.118;4.176;2024-02-15T01:28:57;13.40;99.90
24252;DHT22;12380;51.118;4.176;2024-02-15T01:31:23;13.40;99.90
24252;DHT22;12380;51.118;4.176;2024-02-15T01:33:48;13.50;99.90
24252;DHT22;12380;51.118;4.176;2024-02-15T01:36:17;13.20;99.90
24252;DHT22;12380;51.118;4.176;2024-02-15T01:38:42;13.20;99.90
24252;DHT22;12380;51.118;4.176;2024-02-15T01:41:08;13.40;99.90
24252;DHT22;12380;51.118;4.176;2024-02-15T01:43:34;13.40;99.90
24252;DHT22;12380;51.118;4.176;2024-02-15T01:46:03;13.30;99.90
24252;DHT22;12380;51.118;4.176;2024-02-15T01:48:32;13.30;99.90
24252;DHT22;12380;51.118;4.176;2024-02-15T01:51:00;13.20;99.90
24252;DHT22;12380;51.118;4.176;2024-02-15T01:53:26;13.20;99.90
24252;DHT22;12380;51.118;4.176;2024-02-15T01:55:55;13.10;99.90
24252;DHT22;12380;51.118;4.176;2024-02-15T01:58:23;13.20;99.90
24252;DHT22;12380;51.118;4.176;2024-02-15T02:00:49;13.40;99.90
24252;DHT22;12380;51.118;4.176;2024-02-15T02:03:15;13.40;99.90
24252;DHT22;12380;51.118;4.176;2024-02-15T02:05:42;13.40;99.90
24252;DHT22;12380;51.118;4.176;2024-02-15T02:08:08;13.20;99.90
24252;DHT22;12380;51.118;4.176;2024-02-15T02:10:38;13.10;99.90
24252;DHT22;12380;51.118;4.176;2024-02-15T02:13:07;13.20;99.90
24252;DHT22;12380;51.118;4.176;2024-02-15T02:15:36;13.10;99.90
24252;DHT22;12380;51.118;4.176;2024-02-15T02:18:02;13.30;99.90
24252;DHT22;12380;51.118;4.176;2024-02-15T02:20:30;13.20;99.90
24252;DHT22;12380;51.118;4.176;2024-02-15T02:22:57;13.20;99.90
24252;DHT22;12380;51.118;4.176;2024-02-15T02:25:26;13.10;99.90
24252;DHT22;12380;51.118;4.176;2024-02-15T02:27:54;13.20;99.90
24252;DHT22;12380;51.118;4.176;2024-02-15T02:30:21;13.10;99.90
24252;DHT22;12380;51.118;4.176;2024-02-15T02:32:47;13.10;99.90
24252;DHT22;12380;51.118;4.176;2024-02-15T02:35:13;13.10;99.90
24252;DHT22;12380;51.118;4.176;2024-02-15T02:37:41;13.10;99.90
24252;DHT22;12380;51.118;4.176;2024-02-15T02:40:07;13.00;99.90
24252;DHT22;12380;51.118;4.176;2024-02-15T02:42:50;12.90;99.90
24252;DHT22;12380;51.118;4.176;2024-02-15T02:45:19;13.00;99.90
24252;DHT22;12380;51.118;4.176;2024-02-15T02:47:46;13.00;99.90
24252;DHT22;12380;51.118;4.176;2024-02-15T02:50:12;12.90;99.90
24252;DHT22;12380;51.118;4.176;2024-02-15T02:52:40;12.90;99.90
24252;DHT22;12380;51.118;4.176;2024-02-15T02:55:06;12.90;99.90
24252;DHT22;12380;51.118;4.176;2024-02-15T02:57:37;13.00;99.90
24252;DHT22;12380;51.118;4.176;2024-02-15T03:00:04;12.80;99.90
24252;DHT22;12380;51.118;4.176;2024-02-15T03:02:36;13.00;99.90
24252;DHT22;12380;51.118;4.176;2024-02-15T03:05:03;13.20;99.90
24252;DHT22;12380;51.118;4.176;2024-02-15T03:07:28;13.10;99.90
24252;DHT22;12380;51.118;4.176;2024-02-15T03:09:54;13.00;99.90
24252;DHT22;12380;51.118;4.176;2024-02-15T03:12:19;12.80;99.90
24252;DHT22;12380;51.118;4.176;2024-02-15T03:14:48;12.80;99.90
24252;DHT22;12380;51.118;4.176;2024-02-15T03:17:18;12.80;99.90
24252;DHT22;12380;51.118;4.176;2024-02-15T03:19:43;12.70;99.90
24252;DHT22;12380;51.118;4.176;2024-02-15T03:22:09;12.70;99.90
24252;DHT22;12380;51.118;4.176;2024-02-15T03:24:34;12.70;99.90
24252;DHT22;12380;51.118;4.176;2024-02-15T03:27:00;12.60;99.90
24252;DHT22;12380;51.118;4.176;2024-02-15T03:29:28;12.70;99.90
24252;DHT22;12380;51.118;4.176;2024-02-15T03:31:54;12.80;99.90
24252;DHT22;12380;51.118;4.176;2024-02-15T03:34:25;12.70;99.90
24252;DHT22;12380;51.118;4.176;2024-02-15T03:36:51;12.70;99.90
24252;DHT22;12380;51.118;4.176;2024-02-15T03:39:19;12.80;99.90
24252;DHT22;12380;51.118;4.176;2024-02-15T03:41:45;12.70;99.90
24252;DHT22;12380;51.118;4.176;2024-02-15T03:44:13;12.70;99.90
24252;DHT22;12380;51.118;4.176;2024-02-15T03:46:40;12.80;99.90
24252;DHT22;12380;51.118;4.176;2024-02-15T03:49:05;12.80;99.90
24252;DHT22;12380;51.118;4.176;2024-02-15T03:51:34;12.80;99.90
24252;DHT22;12380;51.118;4.176;2024-02-15T03:53:59;12.80;99.90
24252;DHT22;12380;51.118;4.176;2024-02-15T03:56:25;12.80;99.90
24252;DHT22;12380;51.118;4.176;2024-02-15T03:58:50;12.70;99.90
24252;DHT22;12380;51.118;4.176;2024-02-15T04:01:16;12.70;99.90
24252;DHT22;12380;51.118;4.176;2024-02-15T04:03:44;12.70;99.90
24252;DHT22;12380;51.118;4.176;2024-02-15T04:06:10;12.70;99.90
24252;DHT22;12380;51.118;4.176;2024-02-15T04:08:36;12.70;99.90
24252;DHT22;12380;51.118;4.176;2024-02-15T04:11:05;12.60;99.90
24252;DHT22;12380;51.118;4.176;2024-02-15T04:13:31;12.70;99.90
24252;DHT22;12380;51.118;4.176;2024-02-15T04:15:57;12.80;99.90
24252;DHT22;12380;51.118;4.176;2024-02-15T04:18:23;12.80;99.90
24252;DHT22;12380;51.118;4.176;2024-02-15T04:20:49;12.90;99.90
24252;DHT22;12380;51.118;4.176;2024-02-15T04:23:14;12.90;99.90
24252;DHT22;12380;51.118;4.176;2024-02-15T04:25:40;12.90;99.90
24252;DHT22;12380;51.118;4.176;2024-02-15T04:28:06;12.90;99.90
24252;DHT22;12380;51.118;4.176;2024-02-15T04:30:34;12.90;99.90
24252;DHT22;12380;51.118;4.176;2024-02-15T04:33:04;12.80;99.90
24252;DHT22;12380;51.118;4.176;2024-02-15T04:35:30;12.80;99.90
24252;DHT22;12380;51.118;4.176;2024-02-15T04:37:56;12.90;99.90
24252;DHT22;12380;51.118;4.176;2024-02-15T04:40:21;12.80;99.90
24252;DHT22;12380;51.118;4.176;2024-02-15T04:42:47;12.70;99.90
24252;DHT22;12380;51.118;4.176;2024-02-15T04:45:13;12.80;99.90
24252;DHT22;12380;51.118;4.176;2024-02-15T04:47:42;12.80;99.90
24252;DHT22;12380;51.118;4.176;2024-02-15T04:50:10;12.80;99.90
24252;DHT22;12380;51.118;4.176;2024-02-15T04:52:36;12.80;99.90
24252;DHT22;12380;51.118;4.176;2024-02-15T04:55:02;12.80;99.90
24252;DHT22;12380;51.118;4.176;2024-02-15T04:57:33;12.80;99.90
24252;DHT22;12380;51.118;4.176;2024-02-15T05:00:01;12.90;99.90
24252;DHT22;12380;51.118;4.176;2024-02-15T05:02:29;12.90;99.90
24252;DHT22;12380;51.118;4.176;2024-02-15T05:04:55;13.00;99.90
24252;DHT22;12380;51.118;4.176;2024-02-15T05:07:22;13.00;99.90
24252;DHT22;12380;51.118;4.176;2024-02-15T05:09:48;13.00;99.90
24252;DHT22;12380;51.118;4.176;2024-02-15T05:12:21;13.00;99.90
24252;DHT22;12380;51.118;4.176;2024-02-15T05:14:46;13.00;99.90
24252;DHT22;12380;51.118;4.176;2024-02-15T05:17:12;13.00;99.90
24252;DHT22;12380;51.118;4.176;2024-02-15T05:19:42;13.10;99.90
24252;DHT22;12380;51.118;4.176;2024-02-15T05:22:08;13.00;99.90
24252;DHT22;12380;51.118;4.176;2024-02-15T05:24:33;13.10;99.90
24252;DHT22;12380;51.118;4.176;2024-02-15T05:26:59;13.00;99.90
24252;DHT22;12380;51.118;4.176;2024-02-15T05:29:25;13.00;99.90
24252;DHT22;12380;51.118;4.176;2024-02-15T05:31:50;13.00;99.90
24252;DHT22;12380;51.118;4.176;2024-02-15T05:34:17;13.00;99.90
24252;DHT22;12380;51.118;4.176;2024-02-15T05:36:42;13.10;99.90
24252;DHT22;12380;51.118;4.176;2024-02-15T05:39:08;13.00;99.90
24252;DHT22;12380;51.118;4.176;2024-02-15T05:41:36;13.00;99.90
24252;DHT22;12380;51.118;4.176;2024-02-15T05:44:02;13.00;99.90
24252;DHT22;12380;51.118;4.176;2024-02-15T05:46:32;13.10;99.90
24252;DHT22;12380;51.118;4.176;2024-02-15T05:48:57;13.00;99.90
24252;DHT22;12380;51.118;4.176;2024-02-15T05:51:25;12.90;99.90
24252;DHT22;12380;51.118;4.176;2024-02-15T05:53:51;12.90;99.90
24252;DHT22;12380;51.118;4.176;2024-02-15T05:56:19;12.90;99.90
24252;DHT22;12380;51.118;4.176;2024-02-15T05:58:44;13.00;99.90
24252;DHT22;12380;51.118;4.176;2024-02-15T06:01:10;12.90;99.90
24252;DHT22;12380;51.118;4.176;2024-02-15T06:03:38;12.90;99.90
24252;DHT22;12380;51.118;4.176;2024-02-15T06:06:09;12.90;99.90
24252;DHT22;12380;51.118;4.176;2024-02-15T06:08:36;12.80;99.90
24252;DHT22;12380;51.118;4.176;2024-02-15T06:11:03;12.80;99.90
24252;DHT22;12380;51.118;4.176;2024-02-15T06:13:32;12.80;99.90
24252;DHT22;12380;51.118;4.176;2024-02-15T06:15:57;12.80;99.90
24252;DHT22;12380;51.118;4.176;2024-02-15T06:18:28;12.80;99.90
24252;DHT22;12380;51.118;4.176;2024-02-15T06:20:54;12.90;99.90
24252;DHT22;12380;51.118;4.176;2024-02-15T06:23:22;12.90;99.90
24252;DHT22;12380;51.118;4.176;2024-02-15T06:25:50;12.70;99.90
24252;DHT22;12380;51.118;4.176;2024-02-15T06:28:16;12.80;99.90
24252;DHT22;12380;51.118;4.176;2024-02-15T06:31:00;12.80;99.90
24252;DHT22;12380;51.118;4.176;2024-02-15T06:33:44;12.80;99.90
24252;DHT22;12380;51.118;4.176;2024-02-15T06:36:31;12.90;99.90
24252;DHT22;12380;51.118;4.176;2024-02-15T06:39:15;12.70;99.90
24252;DHT22;12380;51.118;4.176;2024-02-15T06:42:00;12.70;99.90
24252;DHT22;12380;51.118;4.176;2024-02-15T06:44:26;12.70;99.90
24252;DHT22;12380;51.118;4.176;2024-02-15T06:46:52;12.60;99.90
24252;DHT22;12380;51.118;4.176;2024-02-15T06:49:21;12.60;99.90
24252;DHT22;12380;51.118;4.176;2024-02-15T06:51:49;12.60;99.90
24252;DHT22;12380;51.118;4.176;2024-02-15T06:54:14;12.60;99.90
24252;DHT22;12380;51.118;4.176;2024-02-15T06:56:40;12.60;99.90
24252;DHT22;12380;51.118;4.176;2024-02-15T06:59:06;12.60;99.90
24252;DHT22;12380;51.118;4.176;2024-02-15T07:01:32;12.70;99.90
24252;DHT22;12380;51.118;4.176;2024-02-15T07:03:59;12.90;99.90
24252;DHT22;12380;51.118;4.176;2024-02-15T07:06:25;12.90;99.90
24252;DHT22;12380;51.118;4.176;2024-02-15T07:08:52;12.90;99.90
24252;DHT22;12380;51.118;4.176;2024-02-15T07:11:26;12.80;99.90
24252;DHT22;12380;51.118;4.176;2024-02-15T07:13:53;12.90;99.90
24252;DHT22;12380;51.118;4.176;2024-02-15T07:16:19;12.80;99.90
24252;DHT22;12380;51.118;4.176;2024-02-15T07:18:45;12.80;99.90
24252;DHT22;12380;51.118;4.176;2024-02-15T07:21:11;12.80;99.90
24252;DHT22;12380;51.118;4.176;2024-02-15T07:23:47;12.70;99.90
24252;DHT22;12380;51.118;4.176;2024-02-15T07:26:12;12.80;99.90
24252;DHT22;12380;51.118;4.176;2024-02-15T07:28:39;12.70;99.90
24252;DHT22;12380;51.118;4.176;2024-02-15T07:31:06;12.70;99.90
24252;DHT22;12380;51.118;4.176;2024-02-15T07:33:33;12.70;99.90
24252;DHT22;12380;51.118;4.176;2024-02-15T07:36:00;12.70;99.90
24252;DHT22;12380;51.118;4.176;2024-02-15T07:38:28;12.80;99.90
24252;DHT22;12380;51.118;4.176;2024-02-15T07:40:54;12.80;99.90
24252;DHT22;12380;51.118;4.176;2024-02-15T07:43:20;12.80;99.90
24252;DHT22;12380;51.118;4.176;2024-02-15T07:45:46;12.80;99.90
24252;DHT22;12380;51.118;4.176;2024-02-15T07:48:14;12.90;99.90
24252;DHT22;12380;51.118;4.176;2024-02-15T07:50:40;12.90;99.90
24252;DHT22;12380;51.118;4.176;2024-02-15T07:53:09;12.90;99.90
24252;DHT22;12380;51.118;4.176;2024-02-15T07:55:37;13.00;99.90
24252;DHT22;12380;51.118;4.176;2024-02-15T07:58:03;13.00;99.90
24252;DHT22;12380;51.118;4.176;2024-02-15T08:00:32;13.00;99.90
24252;DHT22;12380;51.118;4.176;2024-02-15T08:02:58;13.00;99.90
24252;DHT22;12380;51.118;4.176;2024-02-15T08:05:24;12.80;99.90
24252;DHT22;12380;51.118;4.176;2024-02-15T08:07:52;12.80;99.90
24252;DHT22;12380;51.118;4.176;2024-02-15T08:10:24;12.80;99.90
24252;DHT22;12380;51.118;4.176;2024-02-15T08:12:52;12.80;99.90
24252;DHT22;12380;51.118;4.176;2024-02-15T08:15:18;12.70;99.90
24252;DHT22;12380;51.118;4.176;2024-02-15T08:17:44;12.60;99.90
24252;DHT22;12380;51.118;4.176;2024-02-15T08:20:14;12.70;99.90
24252;DHT22;12380;51.118;4.176;2024-02-15T08:22:42;12.70;99.90
24252;DHT22;12380;51.118;4.176;2024-02-15T08:25:09;12.70;99.90
24252;DHT22;12380;51.118;4.176;2024-02-15T08:27:41;12.80;99.90
24252;DHT22;12380;51.118;4.176;2024-02-15T08:30:15;12.80;99.90
24252;DHT22;12380;51.118;4.176;2024-02-15T08:32:45;12.80;99.90
24252;DHT22;12380;51.118;4.176;2024-02-15T08:35:12;12.80;99.90
24252;DHT22;12380;51.118;4.176;2024-02-15T08:37:41;12.70;99.90
24252;DHT22;12380;51.118;4.176;2024-02-15T08:40:10;12.70;99.90
24252;DHT22;12380;51.118;4.176;2024-02-15T08:42:42;12.70;99.90
24252;DHT22;12380;51.118;4.176;2024-02-15T08:45:08;12.70;99.90
24252;DHT22;12380;51.118;4.176;2024-02-15T08:47:40;12.70;99.90
24252;DHT22;12380;51.118;4.176;2024-02-15T08:50:06;12.70;99.90
24252;DHT22;12380;51.118;4.176;2024-02-15T08:52:34;12.60;99.90
24252;DHT22;12380;51.118;4.176;2024-02-15T08:55:02;12.60;99.90
24252;DHT22;12380;51.118;4.176;2024-02-15T08:57:30;12.70;99.90
24252;DHT22;12380;51.118;4.176;2024-02-15T09:00:02;12.60;99.90
24252;DHT22;12380;51.118;4.176;2024-02-15T09:02:30;12.80;99.90
24252;DHT22;12380;51.118;4.176;2024-02-15T09:04:55;12.70;99.90
24252;DHT22;12380;51.118;4.176;2024-02-15T09:07:21;12.80;99.90
24252;DHT22;12380;51.118;4.176;2024-02-15T09:09:47;12.90;99.90
24252;DHT22;12380;51.118;4.176;2024-02-15T09:12:15;13.00;99.90
24252;DHT22;12380;51.118;4.176;2024-02-15T09:14:41;13.00;99.90
24252;DHT22;12380;51.118;4.176;2024-02-15T09:17:06;13.00;99.90
24252;DHT22;12380;51.118;4.176;2024-02-15T09:19:33;13.10;99.90
24252;DHT22;12380;51.118;4.176;2024-02-15T09:21:59;13.10;99.90
24252;DHT22;12380;51.118;4.176;2024-02-15T09:24:27;13.20;99.90
24252;DHT22;12380;51.118;4.176;2024-02-15T09:26:54;13.30;99.90
24252;DHT22;12380;51.118;4.176;2024-02-15T09:29:19;13.40;99.90
24252;DHT22;12380;51.118;4.176;2024-02-15T09:31:47;13.40;99.90
24252;DHT22;12380;51.118;4.176;2024-02-15T09:34:13;13.60;99.90
24252;DHT22;12380;51.118;4.176;2024-02-15T09:36:39;13.60;99.90
24252;DHT22;12380;51.118;4.176;2024-02-15T09:39:05;13.50;99.90
24252;DHT22;12380;51.118;4.176;2024-02-15T09:41:31;13.70;99.90
24252;DHT22;12380;51.118;4.176;2024-02-15T09:43:59;13.70;99.90
24252;DHT22;12380;51.118;4.176;2024-02-15T09:46:24;13.80;99.90
24252;DHT22;12380;51.118;4.176;2024-02-15T09:48:51;13.80;99.90
24252;DHT22;12380;51.118;4.176;2024-02-15T09:51:20;13.90;99.90
24252;DHT22;12380;51.118;4.176;2024-02-15T09:53:46;14.00;99.90
24252;DHT22;12380;51.118;4.176;2024-02-15T09:56:12;14.00;99.90
24252;DHT22;12380;51.118;4.176;2024-02-15T09:58:38;14.00;99.90
24252;DHT22;12380;51.118;4.176;2024-02-15T10:01:04;14.20;99.90
24252;DHT22;12380;51.118;4.176;2024-02-15T10:03:36;14.20;99.90
24252;DHT22;12380;51.118;4.176;2024-02-15T10:06:04;14.40;99.90
24252;DHT22;12380;51.118;4.176;2024-02-15T10:08:31;14.50;99.90
24252;DHT22;12380;51.118;4.176;2024-02-15T10:11:09;14.60;99.90
24252;DHT22;12380;51.118;4.176;2024-02-15T10:13:35;14.60;99.90
24252;DHT22;12380;51.118;4.176;2024-02-15T10:16:14;14.50;99.90
24252;DHT22;12380;51.118;4.176;2024-02-15T10:18:40;14.50;99.90
24252;DHT22;12380;51.118;4.176;2024-02-15T10:21:05;14.60;99.90
24252;DHT22;12380;51.118;4.176;2024-02-15T10:23:31;14.80;99.90
24252;DHT22;12380;51.118;4.176;2024-02-15T10:25:56;14.70;99.90
24252;DHT22;12380;51.118;4.176;2024-02-15T10:28:26;14.90;99.90
24252;DHT22;12380;51.118;4.176;2024-02-15T10:30:53;14.90;99.90
24252;DHT22;12380;51.118;4.176;2024-02-15T10:33:30;15.00;99.90
24252;DHT22;12380;51.118;4.176;2024-02-15T10:36:04;14.90;99.90
24252;DHT22;12380;51.118;4.176;2024-02-15T10:38:30;14.90;99.90
24252;DHT22;12380;51.118;4.176;2024-02-15T10:41:02;15.10;99.90
24252;DHT22;12380;51.118;4.176;2024-02-15T10:43:30;15.10;99.90
24252;DHT22;12380;51.118;4.176;2024-02-15T10:45:55;15.10;99.90
24252;DHT22;12380;51.118;4.176;2024-02-15T10:48:21;15.10;99.90
24252;DHT22;12380;51.118;4.176;2024-02-15T10:50:47;15.10;99.90
24252;DHT22;12380;51.118;4.176;2024-02-15T10:55:47;15.70;46.50
24252;DHT22;12380;51.118;4.176;2024-02-15T10:58:16;16.00;92.00
24252;DHT22;12380;51.118;4.176;2024-02-15T11:00:44;16.20;1.00
24252;DHT22;12380;51.118;4.176;2024-02-15T11:05:43;16.50;1.00
24252;DHT22;12380;51.118;4.176;2024-02-15T11:08:12;16.50;1.00
24252;DHT22;12380;51.118;4.176;2024-02-15T11:10:38;16.80;1.00
24252;DHT22;12380;51.118;4.176;2024-02-15T11:13:04;17.30;1.00
24252;DHT22;12380;51.118;4.176;2024-02-15T11:18:03;18.00;1.00
24252;DHT22;12380;51.118;4.176;2024-02-15T11:23:02;17.80;1.00
24252;DHT22;12380;51.118;4.176;2024-02-15T11:30:46;17.30;1.00
24252;DHT22;12380;51.118;4.176;2024-02-15T11:33:30;16.90;1.00
24252;DHT22;12380;51.118;4.176;2024-02-15T11:38:34;17.00;1.00
24252;DHT22;12380;51.118;4.176;2024-02-15T11:46:36;17.40;1.00
24252;DHT22;12380;51.118;4.176;2024-02-15T11:49:01;17.50;1.00
24252;DHT22;12380;51.118;4.176;2024-02-15T11:53:58;17.40;99.90
24252;DHT22;12380;51.118;4.176;2024-02-15T11:56:24;17.40;99.90
24252;DHT22;12380;51.118;4.176;2024-02-15T11:59:01;17.40;1.00
24252;DHT22;12380;51.118;4.176;2024-02-15T12:01:27;17.40;1.00
24252;DHT22;12380;51.118;4.176;2024-02-15T12:04:12;17.30;1.00
24252;DHT22;12380;51.118;4.176;2024-02-15T12:06:58;17.20;15.70
24252;DHT22;12380;51.118;4.176;2024-02-15T12:09:42;17.30;1.00
24252;DHT22;12380;51.118;4.176;2024-02-15T12:12:27;17.20;99.90
24252;DHT22;12380;51.118;4.176;2024-02-15T12:15:12;17.20;1.00
24252;DHT22;12380;51.118;4.176;2024-02-15T12:18:12;17.20;1.00
24252;DHT22;12380;51.118;4.176;2024-02-15T12:20:57;17.40;21.90
24252;DHT22;12380;51.118;4.176;2024-02-15T12:23:22;17.40;1.00
24252;DHT22;12380;51.118;4.176;2024-02-15T12:25:52;17.30;1.00
24252;DHT22;12380;51.118;4.176;2024-02-15T12:28:17;17.20;95.10
24252;DHT22;12380;51.118;4.176;2024-02-15T12:30:43;17.10;99.90
24252;DHT22;12380;51.118;4.176;2024-02-15T12:33:10;17.20;99.90
24252;DHT22;12380;51.118;4.176;2024-02-15T12:35:36;17.20;1.00
24252;DHT22;12380;51.118;4.176;2024-02-15T12:38:02;17.20;99.90
24252;DHT22;12380;51.118;4.176;2024-02-15T12:40:36;17.30;99.90
24252;DHT22;12380;51.118;4.176;2024-02-15T12:43:02;17.30;1.00
24252;DHT22;12380;51.118;4.176;2024-02-15T12:45:37;17.40;1.00
24252;DHT22;12380;51.118;4.176;2024-02-15T12:48:03;17.40;31.00
24252;DHT22;12380;51.118;4.176;2024-02-15T12:50:29;17.40;1.00
24252;DHT22;12380;51.118;4.176;2024-02-15T12:52:55;17.40;1.00
24252;DHT22;12380;51.118;4.176;2024-02-15T12:55:21;17.50;99.90
24252;DHT22;12380;51.118;4.176;2024-02-15T12:57:48;17.60;99.90
24252;DHT22;12380;51.118;4.176;2024-02-15T13:00:23;17.70;1.00
24252;DHT22;12380;51.118;4.176;2024-02-15T13:02:57;17.70;99.90
24252;DHT22;12380;51.118;4.176;2024-02-15T13:05:24;17.80;1.00
24252;DHT22;12380;51.118;4.176;2024-02-15T13:07:50;17.70;1.00
24252;DHT22;12380;51.118;4.176;2024-02-15T13:10:17;17.80;1.00
24252;DHT22;12380;51.118;4.176;2024-02-15T13:12:43;17.80;99.90
24252;DHT22;12380;51.118;4.176;2024-02-15T13:15:13;17.80;1.00
24252;DHT22;12380;51.118;4.176;2024-02-15T13:17:52;17.70;55.10
24252;DHT22;12380;51.118;4.176;2024-02-15T13:20:19;17.60;1.00
24252;DHT22;12380;51.118;4.176;2024-02-15T13:22:45;17.60;1.00
24252;DHT22;12380;51.118;4.176;2024-02-15T13:25:13;17.60;99.90
24252;DHT22;12380;51.118;4.176;2024-02-15T13:27:41;17.60;99.90
24252;DHT22;12380;51.118;4.176;2024-02-15T13:30:08;17.60;1.00
24252;DHT22;12380;51.118;4.176;2024-02-15T13:32:38;17.80;1.00
24252;DHT22;12380;51.118;4.176;2024-02-15T13:35:07;17.90;1.00
24252;DHT22;12380;51.118;4.176;2024-02-15T13:37:47;18.10;6.90
24252;DHT22;12380;51.118;4.176;2024-02-15T13:40:13;18.30;1.00
24252;DHT22;12380;51.118;4.176;2024-02-15T13:42:44;18.30;1.00
24252;DHT22;12380;51.118;4.176;2024-02-15T13:45:21;18.30;99.90
24252;DHT22;12380;51.118;4.176;2024-02-15T13:47:50;18.10;1.00
24252;DHT22;12380;51.118;4.176;2024-02-15T13:50:16;18.00;1.00
24252;DHT22;12380;51.118;4.176;2024-02-15T13:52:43;17.90;1.00
24252;DHT22;12380;51.118;4.176;2024-02-15T13:55:16;17.90;1.00
24252;DHT22;12380;51.118;4.176;2024-02-15T13:57:49;17.80;1.00
24252;DHT22;12380;51.118;4.176;2024-02-15T14:00:16;17.90;99.90
24252;DHT22;12380;51.118;4.176;2024-02-15T14:02:51;18.00;99.90
24252;DHT22;12380;51.118;4.176;2024-02-15T14:05:18;18.00;1.00
24252;DHT22;12380;51.118;4.176;2024-02-15T14:07:51;17.80;99.90
24252;DHT22;12380;51.118;4.176;2024-02-15T14:10:23;17.70;1.00
24252;DHT22;12380;51.118;4.176;2024-02-15T14:12:50;17.60;1.00
24252;DHT22;12380;51.118;4.176;2024-02-15T14:15:18;17.80;1.00
24252;DHT22;12380;51.118;4.176;2024-02-15T14:17:46;18.00;1.00
24252;DHT22;12380;51.118;4.176;2024-02-15T14:20:12;18.10;1.00
24252;DHT22;12380;51.118;4.176;2024-02-15T14:22:44;18.20;1.00
24252;DHT22;12380;51.118;4.176;2024-02-15T14:25:10;18.20;1.00
24252;DHT22;12380;51.118;4.176;2024-02-15T14:27:39;17.90;23.90
24252;DHT22;12380;51.118;4.176;2024-02-15T14:30:05;17.80;99.90
24252;DHT22;12380;51.118;4.176;2024-02-15T14:32:49;17.90;1.00
24252;DHT22;12380;51.118;4.176;2024-02-15T14:35:31;17.90;1.00
24252;DHT22;12380;51.118;4.176;2024-02-15T14:38:03;17.70;1.00
24252;DHT22;12380;51.118;4.176;2024-02-15T14:40:35;17.90;1.00
24252;DHT22;12380;51.118;4.176;2024-02-15T14:43:01;17.90;1.00
24252;DHT22;12380;51.118;4.176;2024-02-15T14:45:27;18.00;99.90
24252;DHT22;12380;51.118;4.176;2024-02-15T14:47:53;17.90;99.90
24252;DHT22;12380;51.118;4.176;2024-02-15T14:50:18;17.90;99.90
24252;DHT22;12380;51.118;4.176;2024-02-15T14:52:46;18.10;1.00
24252;DHT22;12380;51.118;4.176;2024-02-15T14:55:13;17.90;1.00
24252;DHT22;12380;51.118;4.176;2024-02-15T14:57:41;17.80;99.90
24252;DHT22;12380;51.118;4.176;2024-02-15T15:00:11;17.60;1.00
24252;DHT22;12380;51.118;4.176;2024-02-15T15:02:42;17.60;1.00
24252;DHT22;12380;51.118;4.176;2024-02-15T15:05:08;17.50;1.00
24252;DHT22;12380;51.118;4.176;2024-02-15T15:07:52;17.60;1.00
24252;DHT22;12380;51.118;4.176;2024-02-15T15:10:39;17.60;1.00
24252;DHT22;12380;51.118;4.176;2024-02-15T15:13:23;17.60;99.90
24252;DHT22;12380;51.118;4.176;2024-02-15T15:15:49;17.80;1.00
24252;DHT22;12380;51.118;4.176;2024-02-15T15:18:14;17.80;1.00
24252;DHT22;12380;51.118;4.176;2024-02-15T15:20:40;17.80;1.00
24252;DHT22;12380;51.118;4.176;2024-02-15T15:23:05;17.80;99.90
24252;DHT22;12380;51.118;4.176;2024-02-15T15:25:34;17.70;1.00
24252;DHT22;12380;51.118;4.176;2024-02-15T15:28:03;17.40;1.00
24252;DHT22;12380;51.118;4.176;2024-02-15T15:30:29;17.40;99.90
24252;DHT22;12380;51.118;4.176;2024-02-15T15:32:55;17.50;7.80
24252;DHT22;12380;51.118;4.176;2024-02-15T15:35:22;17.50;99.90
24252;DHT22;12380;51.118;4.176;2024-02-15T15:37:49;17.60;99.90
24252;DHT22;12380;51.118;4.176;2024-02-15T15:40:16;17.40;99.90
24252;DHT22;12380;51.118;4.176;2024-02-15T15:42:42;17.30;76.40
24252;DHT22;12380;51.118;4.176;2024-02-15T15:45:09;17.20;99.90
24252;DHT22;12380;51.118;4.176;2024-02-15T15:47:36;17.20;27.00
24252;DHT22;12380;51.118;4.176;2024-02-15T15:50:01;17.10;1.00
24252;DHT22;12380;51.118;4.176;2024-02-15T15:52:27;17.00;99.90
24252;DHT22;12380;51.118;4.176;2024-02-15T15:54:55;17.10;1.00
24252;DHT22;12380;51.118;4.176;2024-02-15T15:57:21;17.20;1.00
24252;DHT22;12380;51.118;4.176;2024-02-15T15:59:50;17.30;99.90
24252;DHT22;12380;51.118;4.176;2024-02-15T16:02:16;17.30;86.60
24252;DHT22;12380;51.118;4.176;2024-02-15T16:04:46;17.20;1.00
24252;DHT22;12380;51.118;4.176;2024-02-15T16:07:15;17.00;98.80